sensor_id;sensor_type;location;lat;lon;timestamp;temperature;humidity
25622;DHT22;13487;39.360;22.962;2023-08-07T00:00:45;26.80;71.50
25622;DHT22;13487;39.360;22.962;2023-08-07T00:03:11;26.80;71.60
25622;DHT22;13487;39.360;22.962;2023-08-07T00:05:37;26.80;71.40
25622;DHT22;13487;39.360;22.962;2023-08-07T00:08:02;26.80;71.30
25622;DHT22;13487;39.360;22.962;2023-08-07T00:10:28;26.80;70.80
25622;DHT22;13487;39.360;22.962;2023-08-07T00:12:55;26.80;71.50
25622;DHT22;13487;39.360;22.962;2023-08-07T00:15:21;26.70;70.80
25622;DHT22;13487;39.360;22.962;2023-08-07T00:17:47;26.70;70.90
25622;DHT22;13487;39.360;22.962;2023-08-07T00:20:12;26.70;70.80
25622;DHT22;13487;39.360;22.962;2023-08-07T00:22:38;26.70;71.00
25622;DHT22;13487;39.360;22.962;2023-08-07T00:25:04;26.60;71.70
25622;DHT22;13487;39.360;22.962;2023-08-07T00:27:30;26.60;72.10
25622;DHT22;13487;39.360;22.962;2023-08-07T00:29:56;26.50;72.10
25622;DHT22;13487;39.360;22.962;2023-08-07T00:32:22;26.50;72.30
25622;DHT22;13487;39.360;22.962;2023-08-07T00:34:48;26.50;72.00
25622;DHT22;13487;39.360;22.962;2023-08-07T00:37:14;26.50;71.10
25622;DHT22;13487;39.360;22.962;2023-08-07T00:39:39;26.40;71.00
25622;DHT22;13487;39.360;22.962;2023-08-07T00:42:05;26.40;70.30
25622;DHT22;13487;39.360;22.962;2023-08-07T00:44:31;26.50;70.10
25622;DHT22;13487;39.360;22.962;2023-08-07T00:46:57;26.50;69.60
25622;DHT22;13487;39.360;22.962;2023-08-07T00:49:23;26.50;69.40
25622;DHT22;13487;39.360;22.962;2023-08-07T00:51:49;26.50;69.20
25622;DHT22;13487;39.360;22.962;2023-08-07T00:54:18;26.50;69.00
25622;DHT22;13487;39.360;22.962;2023-08-07T00:56:44;26.50;68.40
25622;DHT22;13487;39.360;22.962;2023-08-07T00:59:10;26.50;68.80
25622;DHT22;13487;39.360;22.962;2023-08-07T01:01:36;26.50;68.00
25622;DHT22;13487;39.360;22.962;2023-08-07T01:04:02;26.50;67.70
25622;DHT22;13487;39.360;22.962;2023-08-07T01:06:28;26.50;67.70
25622;DHT22;13487;39.360;22.962;2023-08-07T01:08:54;26.50;67.90
25622;DHT22;13487;39.360;22.962;2023-08-07T01:11:57;26.50;68.10
25622;DHT22;13487;39.360;22.962;2023-08-07T01:17:15;26.40;68.30
25622;DHT22;13487;39.360;22.962;2023-08-07T01:19:41;26.40;69.10
25622;DHT22;13487;39.360;22.962;2023-08-07T01:22:11;26.40;68.50
25622;DHT22;13487;39.360;22.962;2023-08-07T01:24:41;26.40;68.60
25622;DHT22;13487;39.360;22.962;2023-08-07T01:30:16;26.40;69.30
25622;DHT22;13487;39.360;22.962;2023-08-07T01:35:21;26.30;69.70
25622;DHT22;13487;39.360;22.962;2023-08-07T01:37:52;26.30;69.60
25622;DHT22;13487;39.360;22.962;2023-08-07T01:40:20;26.30;70.50
25622;DHT22;13487;39.360;22.962;2023-08-07T01:42:46;26.30;72.20
25622;DHT22;13487;39.360;22.962;2023-08-07T01:45:13;26.20;72.90
25622;DHT22;13487;39.360;22.962;2023-08-07T01:47:39;26.10;72.70
25622;DHT22;13487;39.360;22.962;2023-08-07T01:50:05;26.00;72.90
25622;DHT22;13487;39.360;22.962;2023-08-07T01:52:31;26.10;72.50
25622;DHT22;13487;39.360;22.962;2023-08-07T01:54:58;26.00;72.40
25622;DHT22;13487;39.360;22.962;2023-08-07T01:57:23;25.90;72.40
25622;DHT22;13487;39.360;22.962;2023-08-07T01:59:49;25.80;72.60
25622;DHT22;13487;39.360;22.962;2023-08-07T02:02:15;25.70;72.70
25622;DHT22;13487;39.360;22.962;2023-08-07T02:04:41;25.70;72.80
25622;DHT22;13487;39.360;22.962;2023-08-07T02:07:07;25.70;72.60
25622;DHT22;13487;39.360;22.962;2023-08-07T02:09:32;25.70;72.80
25622;DHT22;13487;39.360;22.962;2023-08-07T02:11:58;25.70;72.50
25622;DHT22;13487;39.360;22.962;2023-08-07T02:14:24;25.70;71.00
25622;DHT22;13487;39.360;22.962;2023-08-07T02:16:49;25.80;70.70
25622;DHT22;13487;39.360;22.962;2023-08-07T02:19:15;25.90;70.30
25622;DHT22;13487;39.360;22.962;2023-08-07T02:21:41;25.90;69.40
25622;DHT22;13487;39.360;22.962;2023-08-07T02:24:07;25.90;69.30
25622;DHT22;13487;39.360;22.962;2023-08-07T02:26:32;25.90;69.10
25622;DHT22;13487;39.360;22.962;2023-08-07T02:28:58;25.90;69.20
25622;DHT22;13487;39.360;22.962;2023-08-07T02:31:24;25.90;69.00
25622;DHT22;13487;39.360;22.962;2023-08-07T02:33:49;25.90;68.80
25622;DHT22;13487;39.360;22.962;2023-08-07T02:36:15;25.80;68.70
25622;DHT22;13487;39.360;22.962;2023-08-07T02:38:41;25.80;68.70
25622;DHT22;13487;39.360;22.962;2023-08-07T02:41:07;25.80;68.70
25622;DHT22;13487;39.360;22.962;2023-08-07T02:43:33;25.80;68.90
25622;DHT22;13487;39.360;22.962;2023-08-07T02:46:00;25.70;68.70
25622;DHT22;13487;39.360;22.962;2023-08-07T02:48:25;25.70;68.80
25622;DHT22;13487;39.360;22.962;2023-08-07T02:50:51;25.70;68.60
25622;DHT22;13487;39.360;22.962;2023-08-07T02:53:18;25.60;68.50
25622;DHT22;13487;39.360;22.962;2023-08-07T02:55:44;25.60;68.60
25622;DHT22;13487;39.360;22.962;2023-08-07T02:58:10;25.60;68.60
25622;DHT22;13487;39.360;22.962;2023-08-07T03:00:36;25.60;68.60
25622;DHT22;13487;39.360;22.962;2023-08-07T03:03:01;25.60;68.60
25622;DHT22;13487;39.360;22.962;2023-08-07T03:05:27;25.60;68.60
25622;DHT22;13487;39.360;22.962;2023-08-07T03:07:53;25.60;68.50
25622;DHT22;13487;39.360;22.962;2023-08-07T03:10:19;25.50;68.40
25622;DHT22;13487;39.360;22.962;2023-08-07T03:12:45;25.50;68.40
25622;DHT22;13487;39.360;22.962;2023-08-07T03:15:10;25.40;68.50
25622;DHT22;13487;39.360;22.962;2023-08-07T03:17:36;25.40;68.50
25622;DHT22;13487;39.360;22.962;2023-08-07T03:20:02;25.40;68.80
25622;DHT22;13487;39.360;22.962;2023-08-07T03:22:29;25.40;68.80
25622;DHT22;13487;39.360;22.962;2023-08-07T03:24:55;25.40;68.70
25622;DHT22;13487;39.360;22.962;2023-08-07T03:27:21;25.30;69.00
25622;DHT22;13487;39.360;22.962;2023-08-07T03:29:47;25.30;68.90
25622;DHT22;13487;39.360;22.962;2023-08-07T03:32:12;25.40;68.90
25622;DHT22;13487;39.360;22.962;2023-08-07T03:34:38;25.40;68.70
25622;DHT22;13487;39.360;22.962;2023-08-07T03:37:04;25.30;68.80
25622;DHT22;13487;39.360;22.962;2023-08-07T03:39:30;25.30;69.00
25622;DHT22;13487;39.360;22.962;2023-08-07T03:41:55;25.30;69.00
25622;DHT22;13487;39.360;22.962;2023-08-07T03:44:21;25.30;68.80
25622;DHT22;13487;39.360;22.962;2023-08-07T03:46:47;25.30;68.60
25622;DHT22;13487;39.360;22.962;2023-08-07T03:49:13;25.30;68.60
25622;DHT22;13487;39.360;22.962;2023-08-07T03:51:39;25.30;68.40
25622;DHT22;13487;39.360;22.962;2023-08-07T03:54:06;25.30;68.30
25622;DHT22;13487;39.360;22.962;2023-08-07T03:56:31;25.30;68.20
25622;DHT22;13487;39.360;22.962;2023-08-07T03:59:02;25.40;68.30
25622;DHT22;13487;39.360;22.962;2023-08-07T04:01:28;25.40;68.20
25622;DHT22;13487;39.360;22.962;2023-08-07T04:03:53;25.50;67.90
25622;DHT22;13487;39.360;22.962;2023-08-07T04:06:20;25.50;68.00
25622;DHT22;13487;39.360;22.962;2023-08-07T04:08:46;25.60;68.10
25622;DHT22;13487;39.360;22.962;2023-08-07T04:11:13;25.60;68.00
25622;DHT22;13487;39.360;22.962;2023-08-07T04:13:39;25.60;68.00
25622;DHT22;13487;39.360;22.962;2023-08-07T04:16:05;25.60;68.10
25622;DHT22;13487;39.360;22.962;2023-08-07T04:18:32;25.70;69.30
25622;DHT22;13487;39.360;22.962;2023-08-07T04:20:58;25.70;71.10
25622;DHT22;13487;39.360;22.962;2023-08-07T04:23:24;25.60;71.20
25622;DHT22;13487;39.360;22.962;2023-08-07T04:25:51;26.30;70.70
25622;DHT22;13487;39.360;22.962;2023-08-07T04:28:18;28.20;67.20
25622;DHT22;13487;39.360;22.962;2023-08-07T04:30:44;30.20;63.60
25622;DHT22;13487;39.360;22.962;2023-08-07T04:33:11;31.30;61.30
25622;DHT22;13487;39.360;22.962;2023-08-07T04:35:36;31.70;59.90
25622;DHT22;13487;39.360;22.962;2023-08-07T04:38:02;31.60;59.30
25622;DHT22;13487;39.360;22.962;2023-08-07T04:40:29;32.30;58.90
25622;DHT22;13487;39.360;22.962;2023-08-07T04:42:55;33.50;57.40
25622;DHT22;13487;39.360;22.962;2023-08-07T04:45:21;34.10;56.70
25622;DHT22;13487;39.360;22.962;2023-08-07T04:47:47;34.70;55.90
25622;DHT22;13487;39.360;22.962;2023-08-07T04:50:13;34.70;55.60
25622;DHT22;13487;39.360;22.962;2023-08-07T04:52:39;35.70;55.10
25622;DHT22;13487;39.360;22.962;2023-08-07T04:55:05;36.10;54.00
25622;DHT22;13487;39.360;22.962;2023-08-07T04:57:31;36.90;53.10
25622;DHT22;13487;39.360;22.962;2023-08-07T04:59:56;36.70;53.10
25622;DHT22;13487;39.360;22.962;2023-08-07T05:02:22;36.10;53.10
25622;DHT22;13487;39.360;22.962;2023-08-07T05:04:48;36.50;52.20
25622;DHT22;13487;39.360;22.962;2023-08-07T05:07:14;36.60;52.20
25622;DHT22;13487;39.360;22.962;2023-08-07T05:09:40;37.70;52.20
25622;DHT22;13487;39.360;22.962;2023-08-07T05:12:07;37.70;51.70
25622;DHT22;13487;39.360;22.962;2023-08-07T05:14:33;37.70;51.70
25622;DHT22;13487;39.360;22.962;2023-08-07T05:16:59;37.60;51.60
25622;DHT22;13487;39.360;22.962;2023-08-07T05:19:28;37.70;51.20
25622;DHT22;13487;39.360;22.962;2023-08-07T05:21:53;38.50;50.90
25622;DHT22;13487;39.360;22.962;2023-08-07T05:24:19;38.10;50.10
25622;DHT22;13487;39.360;22.962;2023-08-07T05:26:45;38.60;50.10
25622;DHT22;13487;39.360;22.962;2023-08-07T05:29:11;39.40;49.50
25622;DHT22;13487;39.360;22.962;2023-08-07T05:31:37;39.40;49.30
25622;DHT22;13487;39.360;22.962;2023-08-07T05:34:03;39.80;48.60
25622;DHT22;13487;39.360;22.962;2023-08-07T05:36:29;40.00;48.70
25622;DHT22;13487;39.360;22.962;2023-08-07T05:38:57;40.70;47.70
25622;DHT22;13487;39.360;22.962;2023-08-07T05:41:22;40.90;47.30
25622;DHT22;13487;39.360;22.962;2023-08-07T05:43:48;40.20;46.30
25622;DHT22;13487;39.360;22.962;2023-08-07T05:46:14;40.00;45.70
25622;DHT22;13487;39.360;22.962;2023-08-07T05:48:40;38.50;46.20
25622;DHT22;13487;39.360;22.962;2023-08-07T05:51:06;37.80;46.80
25622;DHT22;13487;39.360;22.962;2023-08-07T05:53:34;38.70;46.90
25622;DHT22;13487;39.360;22.962;2023-08-07T05:56:00;38.70;46.60
25622;DHT22;13487;39.360;22.962;2023-08-07T05:58:26;38.80;46.50
25622;DHT22;13487;39.360;22.962;2023-08-07T06:00:52;39.70;45.60
25622;DHT22;13487;39.360;22.962;2023-08-07T06:03:18;38.60;46.30
25622;DHT22;13487;39.360;22.962;2023-08-07T06:05:44;37.30;46.80
25622;DHT22;13487;39.360;22.962;2023-08-07T06:08:09;37.20;48.40
25622;DHT22;13487;39.360;22.962;2023-08-07T06:10:35;35.60;48.90
25622;DHT22;13487;39.360;22.962;2023-08-07T06:13:01;34.60;88.50
25622;DHT22;13487;39.360;22.962;2023-08-07T06:15:30;33.40;51.80
25622;DHT22;13487;39.360;22.962;2023-08-07T06:17:56;33.10;52.30
25622;DHT22;13487;39.360;22.962;2023-08-07T06:20:22;32.60;52.90
25622;DHT22;13487;39.360;22.962;2023-08-07T06:22:47;32.30;53.30
25622;DHT22;13487;39.360;22.962;2023-08-07T06:25:13;32.30;53.50
25622;DHT22;13487;39.360;22.962;2023-08-07T06:27:39;32.10;54.10
25622;DHT22;13487;39.360;22.962;2023-08-07T06:30:05;31.80;53.50
25622;DHT22;13487;39.360;22.962;2023-08-07T06:32:31;31.80;58.50
25622;DHT22;13487;39.360;22.962;2023-08-07T06:34:58;31.50;53.70
25622;DHT22;13487;39.360;22.962;2023-08-07T06:37:23;31.40;54.50
25622;DHT22;13487;39.360;22.962;2023-08-07T06:39:49;31.00;54.40
25622;DHT22;13487;39.360;22.962;2023-08-07T06:42:15;31.10;55.10
25622;DHT22;13487;39.360;22.962;2023-08-07T06:44:41;31.10;54.80
25622;DHT22;13487;39.360;22.962;2023-08-07T06:47:07;31.20;55.00
25622;DHT22;13487;39.360;22.962;2023-08-07T06:49:33;31.20;54.80
25622;DHT22;13487;39.360;22.962;2023-08-07T06:51:59;31.40;54.70
25622;DHT22;13487;39.360;22.962;2023-08-07T06:54:24;30.90;54.90
25622;DHT22;13487;39.360;22.962;2023-08-07T06:56:50;30.90;55.40
25622;DHT22;13487;39.360;22.962;2023-08-07T06:59:16;30.90;55.40
25622;DHT22;13487;39.360;22.962;2023-08-07T07:01:41;30.70;55.30
25622;DHT22;13487;39.360;22.962;2023-08-07T07:04:07;30.70;55.20
25622;DHT22;13487;39.360;22.962;2023-08-07T07:06:33;30.60;55.40
25622;DHT22;13487;39.360;22.962;2023-08-07T07:08:59;30.70;55.50
25622;DHT22;13487;39.360;22.962;2023-08-07T07:11:25;30.90;55.20
25622;DHT22;13487;39.360;22.962;2023-08-07T07:13:51;30.80;55.20
25622;DHT22;13487;39.360;22.962;2023-08-07T07:16:20;30.90;55.40
25622;DHT22;13487;39.360;22.962;2023-08-07T07:18:50;31.10;55.20
25622;DHT22;13487;39.360;22.962;2023-08-07T07:21:16;31.10;55.20
25622;DHT22;13487;39.360;22.962;2023-08-07T07:23:42;30.70;54.60
25622;DHT22;13487;39.360;22.962;2023-08-07T07:26:07;30.60;55.10
25622;DHT22;13487;39.360;22.962;2023-08-07T07:28:33;30.70;55.00
25622;DHT22;13487;39.360;22.962;2023-08-07T07:30:59;30.90;55.10
25622;DHT22;13487;39.360;22.962;2023-08-07T07:33:25;31.10;54.80
25622;DHT22;13487;39.360;22.962;2023-08-07T07:35:51;30.80;54.40
25622;DHT22;13487;39.360;22.962;2023-08-07T07:38:16;30.60;54.30
25622;DHT22;13487;39.360;22.962;2023-08-07T07:40:42;30.70;54.80
25622;DHT22;13487;39.360;22.962;2023-08-07T07:43:08;30.90;55.10
25622;DHT22;13487;39.360;22.962;2023-08-07T07:45:34;31.10;55.00
25622;DHT22;13487;39.360;22.962;2023-08-07T07:48:02;31.30;54.80
25622;DHT22;13487;39.360;22.962;2023-08-07T07:50:29;31.10;54.30
25622;DHT22;13487;39.360;22.962;2023-08-07T07:52:54;31.20;55.20
25622;DHT22;13487;39.360;22.962;2023-08-07T07:55:20;31.50;54.50
25622;DHT22;13487;39.360;22.962;2023-08-07T07:57:46;31.50;54.50
25622;DHT22;13487;39.360;22.962;2023-08-07T08:00:12;31.50;54.60
25622;DHT22;13487;39.360;22.962;2023-08-07T08:02:39;31.60;53.90
25622;DHT22;13487;39.360;22.962;2023-08-07T08:05:07;31.70;54.50
25622;DHT22;13487;39.360;22.962;2023-08-07T08:07:33;31.50;54.10
25622;DHT22;13487;39.360;22.962;2023-08-07T08:10:00;31.60;53.90
25622;DHT22;13487;39.360;22.962;2023-08-07T08:12:26;31.70;54.40
25622;DHT22;13487;39.360;22.962;2023-08-07T08:14:52;31.60;53.60
25622;DHT22;13487;39.360;22.962;2023-08-07T08:17:18;31.70;53.20
25622;DHT22;13487;39.360;22.962;2023-08-07T08:19:43;31.70;54.10
25622;DHT22;13487;39.360;22.962;2023-08-07T08:22:09;31.80;53.60
25622;DHT22;13487;39.360;22.962;2023-08-07T08:24:35;31.80;53.30
25622;DHT22;13487;39.360;22.962;2023-08-07T08:27:01;31.50;52.40
25622;DHT22;13487;39.360;22.962;2023-08-07T08:29:26;31.60;53.30
25622;DHT22;13487;39.360;22.962;2023-08-07T08:31:54;31.70;53.20
25622;DHT22;13487;39.360;22.962;2023-08-07T08:34:20;31.80;53.90
25622;DHT22;13487;39.360;22.962;2023-08-07T08:36:47;31.90;53.20
25622;DHT22;13487;39.360;22.962;2023-08-07T08:39:13;32.00;53.30
25622;DHT22;13487;39.360;22.962;2023-08-07T08:41:40;32.00;53.10
25622;DHT22;13487;39.360;22.962;2023-08-07T08:44:10;32.00;53.10
25622;DHT22;13487;39.360;22.962;2023-08-07T08:46:38;31.80;52.10
25622;DHT22;13487;39.360;22.962;2023-08-07T08:49:06;31.80;52.30
25622;DHT22;13487;39.360;22.962;2023-08-07T08:51:33;32.10;51.80
25622;DHT22;13487;39.360;22.962;2023-08-07T08:53:59;32.10;52.20
25622;DHT22;13487;39.360;22.962;2023-08-07T08:56:28;32.10;52.80
25622;DHT22;13487;39.360;22.962;2023-08-07T08:58:54;32.20;52.50
25622;DHT22;13487;39.360;22.962;2023-08-07T09:01:20;32.10;51.70
25622;DHT22;13487;39.360;22.962;2023-08-07T09:03:47;32.00;55.50
25622;DHT22;13487;39.360;22.962;2023-08-07T09:06:13;31.60;61.40
25622;DHT22;13487;39.360;22.962;2023-08-07T09:08:43;31.40;61.00
25622;DHT22;13487;39.360;22.962;2023-08-07T09:11:10;31.30;62.40
25622;DHT22;13487;39.360;22.962;2023-08-07T09:13:38;31.30;65.00
25622;DHT22;13487;39.360;22.962;2023-08-07T09:16:08;31.30;66.00
25622;DHT22;13487;39.360;22.962;2023-08-07T09:18:34;31.30;66.40
25622;DHT22;13487;39.360;22.962;2023-08-07T09:21:00;31.30;64.50
25622;DHT22;13487;39.360;22.962;2023-08-07T09:23:26;31.50;63.80
25622;DHT22;13487;39.360;22.962;2023-08-07T09:26:04;31.40;62.80
25622;DHT22;13487;39.360;22.962;2023-08-07T09:28:32;31.30;60.70
25622;DHT22;13487;39.360;22.962;2023-08-07T09:30:59;31.50;59.50
25622;DHT22;13487;39.360;22.962;2023-08-07T09:33:29;31.50;57.80
25622;DHT22;13487;39.360;22.962;2023-08-07T09:36:00;31.50;57.50
25622;DHT22;13487;39.360;22.962;2023-08-07T09:38:30;31.60;59.80
25622;DHT22;13487;39.360;22.962;2023-08-07T09:41:03;31.80;58.10
25622;DHT22;13487;39.360;22.962;2023-08-07T09:43:33;31.80;56.50
25622;DHT22;13487;39.360;22.962;2023-08-07T09:46:06;31.80;55.30
25622;DHT22;13487;39.360;22.962;2023-08-07T09:48:42;31.90;54.90
25622;DHT22;13487;39.360;22.962;2023-08-07T09:51:08;32.00;53.60
25622;DHT22;13487;39.360;22.962;2023-08-07T09:53:34;31.90;55.00
25622;DHT22;13487;39.360;22.962;2023-08-07T09:56:01;31.90;54.40
25622;DHT22;13487;39.360;22.962;2023-08-07T09:58:28;31.70;55.50
25622;DHT22;13487;39.360;22.962;2023-08-07T10:00:54;31.80;56.50
25622;DHT22;13487;39.360;22.962;2023-08-07T10:03:25;31.90;57.20
25622;DHT22;13487;39.360;22.962;2023-08-07T10:05:51;32.20;57.20
25622;DHT22;13487;39.360;22.962;2023-08-07T10:08:16;32.10;55.10
25622;DHT22;13487;39.360;22.962;2023-08-07T10:10:43;31.80;55.90
25622;DHT22;13487;39.360;22.962;2023-08-07T10:13:12;31.70;56.70
25622;DHT22;13487;39.360;22.962;2023-08-07T10:15:39;31.80;56.90
25622;DHT22;13487;39.360;22.962;2023-08-07T10:18:10;31.60;56.00
25622;DHT22;13487;39.360;22.962;2023-08-07T10:20:36;31.60;56.10
25622;DHT22;13487;39.360;22.962;2023-08-07T10:23:09;31.70;55.70
25622;DHT22;13487;39.360;22.962;2023-08-07T10:25:40;31.60;54.50
25622;DHT22;13487;39.360;22.962;2023-08-07T10:28:14;31.50;55.00
25622;DHT22;13487;39.360;22.962;2023-08-07T10:30:41;31.60;57.00
25622;DHT22;13487;39.360;22.962;2023-08-07T10:33:11;31.80;55.80
25622;DHT22;13487;39.360;22.962;2023-08-07T10:35:45;32.00;56.10
25622;DHT22;13487;39.360;22.962;2023-08-07T10:38:12;32.20;57.30
25622;DHT22;13487;39.360;22.962;2023-08-07T10:41:07;32.30;58.40
25622;DHT22;13487;39.360;22.962;2023-08-07T10:43:43;32.10;56.40
25622;DHT22;13487;39.360;22.962;2023-08-07T10:46:11;32.00;57.00
25622;DHT22;13487;39.360;22.962;2023-08-07T10:48:39;32.00;56.00
25622;DHT22;13487;39.360;22.962;2023-08-07T10:51:05;32.00;55.10
25622;DHT22;13487;39.360;22.962;2023-08-07T10:53:36;32.10;54.80
25622;DHT22;13487;39.360;22.962;2023-08-07T10:56:07;32.10;55.50
25622;DHT22;13487;39.360;22.962;2023-08-07T10:58:37;32.40;57.90
25622;DHT22;13487;39.360;22.962;2023-08-07T11:04:14;32.50;56.20
25622;DHT22;13487;39.360;22.962;2023-08-07T11:06:42;32.30;54.00
25622;DHT22;13487;39.360;22.962;2023-08-07T11:09:09;32.00;52.10
25622;DHT22;13487;39.360;22.962;2023-08-07T11:11:40;32.00;52.50
25622;DHT22;13487;39.360;22.962;2023-08-07T11:14:07;32.10;51.90
25622;DHT22;13487;39.360;22.962;2023-08-07T11:16:34;32.10;52.40
25622;DHT22;13487;39.360;22.962;2023-08-07T11:19:01;32.30;52.10
25622;DHT22;13487;39.360;22.962;2023-08-07T11:21:27;32.30;49.10
25622;DHT22;13487;39.360;22.962;2023-08-07T11:23:53;32.20;50.00
25622;DHT22;13487;39.360;22.962;2023-08-07T11:26:18;32.10;48.90
25622;DHT22;13487;39.360;22.962;2023-08-07T11:28:48;32.10;47.20
25622;DHT22;13487;39.360;22.962;2023-08-07T11:31:14;32.20;46.50
25622;DHT22;13487;39.360;22.962;2023-08-07T11:33:40;32.00;46.70
25622;DHT22;13487;39.360;22.962;2023-08-07T11:36:13;32.10;47.00
25622;DHT22;13487;39.360;22.962;2023-08-07T11:38:44;32.10;45.60
25622;DHT22;13487;39.360;22.962;2023-08-07T11:41:12;32.00;46.60
25622;DHT22;13487;39.360;22.962;2023-08-07T11:43:38;31.90;46.20
25622;DHT22;13487;39.360;22.962;2023-08-07T11:46:06;31.70;48.40
25622;DHT22;13487;39.360;22.962;2023-08-07T11:48:37;31.80;46.80
25622;DHT22;13487;39.360;22.962;2023-08-07T11:51:04;31.80;46.80
25622;DHT22;13487;39.360;22.962;2023-08-07T11:53:35;31.80;45.40
25622;DHT22;13487;39.360;22.962;2023-08-07T11:56:02;31.90;44.70
25622;DHT22;13487;39.360;22.962;2023-08-07T11:58:34;31.80;45.50
25622;DHT22;13487;39.360;22.962;2023-08-07T12:01:05;31.80;45.40
25622;DHT22;13487;39.360;22.962;2023-08-07T12:03:32;32.00;46.20
25622;DHT22;13487;39.360;22.962;2023-08-07T12:06:03;32.00;47.00
25622;DHT22;13487;39.360;22.962;2023-08-07T12:08:41;31.90;45.70
25622;DHT22;13487;39.360;22.962;2023-08-07T12:11:12;31.90;44.70
25622;DHT22;13487;39.360;22.962;2023-08-07T12:13:43;31.80;44.40
25622;DHT22;13487;39.360;22.962;2023-08-07T12:16:11;31.90;43.40
25622;DHT22;13487;39.360;22.962;2023-08-07T12:18:45;32.00;44.10
25622;DHT22;13487;39.360;22.962;2023-08-07T12:21:14;32.00;43.70
25622;DHT22;13487;39.360;22.962;2023-08-07T12:23:41;31.90;44.40
25622;DHT22;13487;39.360;22.962;2023-08-07T12:26:07;32.00;44.70
25622;DHT22;13487;39.360;22.962;2023-08-07T12:28:36;32.10;45.10
25622;DHT22;13487;39.360;22.962;2023-08-07T12:31:02;32.00;42.50
25622;DHT22;13487;39.360;22.962;2023-08-07T12:33:31;32.10;41.50
25622;DHT22;13487;39.360;22.962;2023-08-07T12:35:58;32.10;42.20
25622;DHT22;13487;39.360;22.962;2023-08-07T12:38:24;32.10;43.00
25622;DHT22;13487;39.360;22.962;2023-08-07T12:40:50;32.10;43.20
25622;DHT22;13487;39.360;22.962;2023-08-07T12:43:16;32.10;42.70
25622;DHT22;13487;39.360;22.962;2023-08-07T12:45:42;32.10;43.10
25622;DHT22;13487;39.360;22.962;2023-08-07T12:48:08;32.10;41.40
25622;DHT22;13487;39.360;22.962;2023-08-07T12:50:34;32.10;41.60
25622;DHT22;13487;39.360;22.962;2023-08-07T12:53:00;32.10;41.40
25622;DHT22;13487;39.360;22.962;2023-08-07T12:55:26;32.10;41.30
25622;DHT22;13487;39.360;22.962;2023-08-07T12:57:54;32.20;41.20
25622;DHT22;13487;39.360;22.962;2023-08-07T13:00:20;32.20;42.50
25622;DHT22;13487;39.360;22.962;2023-08-07T13:02:48;32.20;42.40
25622;DHT22;13487;39.360;22.962;2023-08-07T13:05:15;32.30;43.60
25622;DHT22;13487;39.360;22.962;2023-08-07T13:07:48;32.30;43.60
25622;DHT22;13487;39.360;22.962;2023-08-07T13:10:15;32.20;44.20
25622;DHT22;13487;39.360;22.962;2023-08-07T13:12:43;32.20;44.80
25622;DHT22;13487;39.360;22.962;2023-08-07T13:15:14;32.30;45.60
25622;DHT22;13487;39.360;22.962;2023-08-07T13:17:41;32.10;46.10
25622;DHT22;13487;39.360;22.962;2023-08-07T13:20:08;32.10;48.00
25622;DHT22;13487;39.360;22.962;2023-08-07T13:22:37;32.10;50.80
25622;DHT22;13487;39.360;22.962;2023-08-07T13:25:04;32.10;52.70
25622;DHT22;13487;39.360;22.962;2023-08-07T13:27:31;32.10;53.20
25622;DHT22;13487;39.360;22.962;2023-08-07T13:29:57;32.00;53.20
25622;DHT22;13487;39.360;22.962;2023-08-07T13:32:22;32.00;53.50
25622;DHT22;13487;39.360;22.962;2023-08-07T13:34:48;31.80;56.20
25622;DHT22;13487;39.360;22.962;2023-08-07T13:37:14;32.00;56.30
25622;DHT22;13487;39.360;22.962;2023-08-07T13:39:40;32.10;57.10
25622;DHT22;13487;39.360;22.962;2023-08-07T13:42:07;32.00;58.20
25622;DHT22;13487;39.360;22.962;2023-08-07T13:44:33;32.00;58.50
25622;DHT22;13487;39.360;22.962;2023-08-07T13:46:58;32.00;59.80
25622;DHT22;13487;39.360;22.962;2023-08-07T13:49:24;31.90;59.80
25622;DHT22;13487;39.360;22.962;2023-08-07T13:51:50;31.90;59.20
25622;DHT22;13487;39.360;22.962;2023-08-07T13:54:16;31.80;62.10
25622;DHT22;13487;39.360;22.962;2023-08-07T13:56:42;31.80;60.80
25622;DHT22;13487;39.360;22.962;2023-08-07T13:59:08;31.90;60.40
25622;DHT22;13487;39.360;22.962;2023-08-07T14:01:35;32.00;56.90
25622;DHT22;13487;39.360;22.962;2023-08-07T14:04:05;32.00;57.60
25622;DHT22;13487;39.360;22.962;2023-08-07T14:06:31;32.00;58.70
25622;DHT22;13487;39.360;22.962;2023-08-07T14:08:57;32.10;57.50
25622;DHT22;13487;39.360;22.962;2023-08-07T14:11:23;32.10;58.80
25622;DHT22;13487;39.360;22.962;2023-08-07T14:13:53;32.10;56.90
25622;DHT22;13487;39.360;22.962;2023-08-07T14:16:19;32.20;56.60
25622;DHT22;13487;39.360;22.962;2023-08-07T14:18:44;32.30;56.30
25622;DHT22;13487;39.360;22.962;2023-08-07T14:21:10;32.30;54.80
25622;DHT22;13487;39.360;22.962;2023-08-07T14:23:36;32.30;54.40
25622;DHT22;13487;39.360;22.962;2023-08-07T14:26:02;32.20;53.30
25622;DHT22;13487;39.360;22.962;2023-08-07T14:28:27;32.20;52.10
25622;DHT22;13487;39.360;22.962;2023-08-07T14:30:56;32.20;53.70
25622;DHT22;13487;39.360;22.962;2023-08-07T14:33:22;32.20;53.90
25622;DHT22;13487;39.360;22.962;2023-08-07T14:35:48;32.10;53.50
25622;DHT22;13487;39.360;22.962;2023-08-07T14:38:14;32.10;54.00
25622;DHT22;13487;39.360;22.962;2023-08-07T14:40:40;32.20;53.00
25622;DHT22;13487;39.360;22.962;2023-08-07T14:43:06;32.20;52.80
25622;DHT22;13487;39.360;22.962;2023-08-07T14:45:32;32.20;52.60
25622;DHT22;13487;39.360;22.962;2023-08-07T14:47:58;32.10;52.50
25622;DHT22;13487;39.360;22.962;2023-08-07T14:50:24;32.10;52.10
25622;DHT22;13487;39.360;22.962;2023-08-07T14:52:49;32.10;52.40
25622;DHT22;13487;39.360;22.962;2023-08-07T14:55:15;32.10;51.90
25622;DHT22;13487;39.360;22.962;2023-08-07T14:57:42;32.10;52.80
25622;DHT22;13487;39.360;22.962;2023-08-07T15:00:08;32.10;52.40
25622;DHT22;13487;39.360;22.962;2023-08-07T15:02:34;32.10;52.20
25622;DHT22;13487;39.360;22.962;2023-08-07T15:05:00;32.30;52.30
25622;DHT22;13487;39.360;22.962;2023-08-07T15:07:26;32.30;51.90
25622;DHT22;13487;39.360;22.962;2023-08-07T15:09:52;32.30;51.60
25622;DHT22;13487;39.360;22.962;2023-08-07T15:12:17;32.20;51.70
25622;DHT22;13487;39.360;22.962;2023-08-07T15:14:43;32.30;52.70
25622;DHT22;13487;39.360;22.962;2023-08-07T15:17:09;32.40;51.90
25622;DHT22;13487;39.360;22.962;2023-08-07T15:19:34;32.30;52.10
25622;DHT22;13487;39.360;22.962;2023-08-07T15:22:00;32.40;52.20
25622;DHT22;13487;39.360;22.962;2023-08-07T15:24:26;32.20;50.70